SNAKE--AMERICAN FALLS RESERVOIR (AFRI1)

Observed    Forecast/Trend Issued: 2026-05-07 06:21 PDT
Date/Time (PDT)Inflow    Date/Time (PDT)Inflow
2026-05-06 17:002794    2026-05-07 11:002679.21
2026-05-06 11:002935    2026-05-07 17:002631.99
2026-05-06 05:003185    2026-05-07 23:002582.45
2026-05-05 23:003348    2026-05-08 05:002560.32
2026-05-05 17:003378    2026-05-08 11:002566.92
2026-05-05 11:003378    2026-05-08 17:002673.78
2026-05-05 05:003395    2026-05-08 23:002862.61
2026-05-04 23:003431    2026-05-09 05:003119.64
2026-05-04 17:003451    2026-05-09 11:003458.45
2026-05-04 11:003369    2026-05-09 17:003753.09
2026-05-04 05:003209    2026-05-09 23:004016.61
2026-05-03 23:003156    2026-05-10 05:004233.97
2026-05-03 17:003296    2026-05-10 11:004298.95
2026-05-03 11:003439    2026-05-10 17:004429.98
2026-05-03 05:003428    2026-05-10 23:004531.84
2026-05-02 23:003389    2026-05-11 05:004615.09
2026-05-02 17:003466    2026-05-11 11:004643.94
2026-05-02 11:003629    2026-05-11 17:004708.4
2026-05-02 05:003810    2026-05-11 23:004762.62
2026-05-01 23:003972    2026-05-12 05:004805.23
2026-05-01 17:004133    2026-05-12 11:004842.99
2026-05-01 11:004315    2026-05-12 17:004864.82
2026-05-01 05:004491    2026-05-12 23:004876.85
2026-04-30 23:004628    2026-05-13 05:004880.08
2026-04-30 17:004736    2026-05-13 11:004883.39
2026-04-30 11:004838    2026-05-13 17:004881.61
2026-04-30 05:004941    2026-05-13 23:004879.88
2026-04-29 23:005049    2026-05-14 05:004880.62
2026-04-29 17:005177    2026-05-14 11:004871.97
2026-04-29 11:005326    2026-05-14 17:004884.6
2026-04-29 05:005460    2026-05-14 23:004901.29
2026-04-28 23:005546    2026-05-15 05:004920.74
2026-04-28 17:005612    2026-05-15 11:004903.94
2026-04-28 11:005707    2026-05-15 17:004927.9
2026-04-28 05:005811    2026-05-15 23:004951.25
2026-04-27 23:005875    2026-05-16 05:004970.68
2026-04-27 17:005896  
2026-04-27 11:005897  
2026-04-27 05:005883  
2026-04-26 23:005839  
2026-04-26 17:005761